Terminal Aerodrome Forecast
Issued by NWS North Platte, NE

Home | Current Version | Previous Version | Text Only | Print | Product List | Glossary Off
Versions: 1 2 3 4 5 6 7 8 9 10 11 12 13 14 15 16 17 18 19 20

000
FTUS43 KLBF 250500
TAFVTN
TAF
KVTN 250526Z 2506/2606 28006KT P6SM BKN045
     FM251700 24011KT P6SM BKN070
     FM251900 21010KT P6SM OVC060 PROB30 2521/2601 5SM -SHRASN
      OVC015
     FM260200 33017G30KT P6SM SCT015 OVC025=

USA.gov is the U.S. government's official web portal to all federal, state and local government web resources and services.